Latest Coastal Weather Observations for Maatsuyker Island

IDT60701

Issued at 6:11 am EST Friday 31 July 2015 (issued every 10 minutes, with the page automatically refreshed every 10 minutes)

About coastal observations | Map of coastal stations | Coastal observations for TAS | Marine services | Other Formats
Station Details ID: 094041 Name: MAATSUYKER ISLAND LIGHTHOUSE Lat: -43.66 Lon: 146.27 Height: 146.5 m
Data from the previous 72 hours. | See also: Recent months at Maatsuyker Island
Date/Time
EST
Temp

°C
Wind Pressure Rain
since 9am
mm
Weather Cloud Vis
km
Sea
Height
m
Swell
Dir
 
Speed
knots
Gust
knots
hPa Trend Height
m
Period
s
Dir
31/06:04am 6.6 NW 39 52 1007.8 - 7.0 - - - - - - -
31/06:03am 7.2 NW 38 52 1008.3 - 7.0 - - - - - - -
31/06:00am 7.2 WNW 30 42 1008.8 R 7.0 Fine Partly cloudy 15 2 3.0 12 SW
31/05:56am 7.1 NW 38 48 1008.7 - 7.0 - - - - - - -
31/05:30am 6.7 NW 39 46 1008.4 - 7.0 - - - - - - -
31/05:05am 6.8 NW 38 50 1008.2 - 7.0 - - - - - - -
31/05:04am 6.5 NW 38 48 1008.4 - 7.0 - - - - - - -
31/05:00am 5.8 NW 39 48 1008.7 - 7.0 - - - - - - -
31/04:30am 6.6 NW 42 47 1008.0 - 7.0 - - - - - - -
31/04:16am 6.6 NW 43 46 1007.7 - 7.0 - - - - - - -
31/04:01am 4.9 NW 31 48 1009.1 - 6.8 - - - - - - -
31/04:00am 4.8 NW 33 48 1009.0 - 6.6 - - - - - - -
31/03:45am 5.6 NW 47 53 1007.6 - 6.2 - - - - - - -
31/03:40am 7.2 WNW 35 45 1008.2 - 6.2 - - - - - - -
31/03:30am 6.8 NW 37 43 1008.8 - 6.2 - - - - - - -
31/03:11am 7.1 NW 37 47 1007.7 - 6.2 - - - - - - -
31/03:00am 6.8 NW 39 43 1008.0 - 6.2 - - - - - - -
31/02:33am 5.5 NW 34 51 1008.1 - 6.2 - - - - - - -
31/02:32am 5.3 NW 35 40 1008.1 - 6.2 - - - - - - -
31/02:30am 5.3 NW 45 51 1007.7 - 6.2 - - - - - - -
31/02:23am 5.8 WNW 47 51 1007.6 - 6.2 - - - - - - -
31/02:22am 5.9 WNW 46 49 1007.6 - 6.2 - - - - - - -
31/02:15am 5.8 WNW 35 45 1008.4 - 6.2 - - - - - - -
31/02:00am 6.1 WNW 37 45 1007.7 - 6.2 - - - - - - -
31/01:30am 6.5 WNW 35 40 1007.7 - 6.2 - - - - - - -
31/01:01am 6.1 WNW 36 46 1007.7 - 6.2 - - - - - - -
31/01:00am 6.0 WNW 37 46 1007.5 - 6.2 - - - - - - -
31/12:30am 6.0 WNW 37 45 1006.8 - 6.2 - - - - - - -
31/12:00am 6.5 WNW 37 43 1006.8 - 6.2 - - - - - - -
 
Date/Time
EST
Temp

°C
Wind Pressure Rain
since 9am
mm
Weather Cloud Vis
km
Sea
Height
m
Swell
Dir
 
Speed
knots
Gust
knots
hPa Trend Height
m
Period
s
Dir
30/11:32pm 6.4 WNW 37 47 1005.9 - 6.2 - - - - - - -
30/11:30pm 6.5 WNW 37 45 1006.1 - 6.2 - - - - - - -
30/11:07pm 6.6 WNW 38 48 1005.2 - 6.2 - - - - - - -
30/11:00pm 6.4 WNW 38 43 1005.2 - 6.2 - - - - - - -
30/10:45pm 6.5 WNW 30 45 1005.3 - 6.2 - - - - - - -
30/10:39pm 5.7 WNW 25 46 1005.6 - 6.2 - - - - - - -
30/10:30pm 6.5 WNW 36 46 1005.6 - 6.2 - - - - - - -
30/10:00pm 7.1 WNW 33 43 1004.7 - 6.0 - - - - - - -
30/09:55pm 7.3 WNW 29 43 1004.5 - 6.0 - - - - - - -
30/09:30pm 7.0 WNW 32 38 1004.8 - 6.0 - - - - - - -
30/09:00pm 6.8 W 25 35 1004.3 - 6.0 - - - - - - -
30/08:44pm 6.2 W 21 32 1004.1 - 6.0 - - - - - - -
30/08:40pm 5.7 W 20 25 1003.9 - 6.0 - - - - - - -
30/08:30pm 6.3 W 30 41 1003.7 - 6.0 - - - - - - -
30/08:08pm 7.1 W 26 36 1002.6 - 6.0 - - - - - - -
30/08:00pm 7.0 W 27 35 1002.4 - 6.0 - - - - - - -
30/07:51pm 7.0 W 30 40 1002.1 - 6.0 - - - - - - -
30/07:48pm 7.1 W 30 40 1001.9 - 6.0 - - - - - - -
30/07:30pm 6.9 W 30 38 1001.0 - 6.0 - - - - - - -
30/07:05pm 7.4 WNW 31 41 999.3 - 6.0 - - - - - - -
30/07:00pm 7.8 WNW 33 41 999.1 - 6.0 - - - - - - -
30/06:52pm 7.4 WNW 32 53 998.4 - 5.8 - - - - - - -
30/06:50pm 7.1 NW 43 53 998.7 - 5.8 - - - - - - -
30/06:49pm 7.6 NW 44 53 998.2 - 5.8 - - - - - - -
30/06:33pm 8.0 NNW 38 49 995.7 - 5.0 - - - - - - -
30/06:30pm 8.0 NNW 37 44 996.1 - 5.0 - - - - - - -
30/06:00pm 7.6 NNW 35 45 996.1 - 4.0 - - - - - - -
30/05:42pm 6.8 NNW 39 49 995.5 - 3.4 - - - - - - -
30/05:41pm 6.8 NNW 39 49 995.6 - 3.2 - - - - - - -
30/05:30pm 6.2 NNW 44 53 994.7 - 2.8 - - - - - - -
30/05:28pm 6.6 NNW 44 53 994.6 - 2.6 - - - - - - -
30/05:07pm 7.9 NW 55 77 993.1 - 0.4 - - - - - - -
30/05:06pm 9.7 NNW 36 62 993.4 - 0.2 - - - - - - -
30/05:00pm 10.0 NNW 34 47 993.1 - 0.0 - - - - - - -
30/04:30pm 9.9 NNW 32 46 993.3 - 0.0 - - - - - - -
30/04:00pm 9.7 NNW 36 47 994.0 - 0.0 - - - - - - -
30/03:30pm 9.8 NNW 35 45 994.4 - 0.0 - - - - - - -
30/03:00pm 9.6 WNW 30 51 995.2 F 0.0 Showers Cloudy 8 2 4.0 13 SW
30/02:30pm 10.9 NNW 35 48 996.2 - 0.0 - - - - - - -
30/02:00pm 11.1 NNW 29 49 997.4 - 0.0 - - - - - - -
30/01:30pm 11.0 NNW 27 40 998.5 - 0.0 - - - - - - -
30/01:00pm 11.2 NNW 28 38 999.4 - 0.0 - - - - - - -
30/12:32pm 11.7 NNW 26 36 1000.0 - 0.0 - - - - - - -
30/12:30pm 11.6 NNW 26 35 1000.0 - 0.0 - - - - - - -
30/12:02pm 10.9 NNW 23 33 1001.3 - 0.0 - - - - - - -
30/12:00pm 10.9 NNW 23 32 1001.5 - 0.0 - - - - - - -
30/11:30am 10.8 NNW 28 40 1002.1 - 0.0 - - - - - - -
30/11:05am 10.7 NNW 28 40 1002.8 - 0.0 - - - - - - -
30/11:00am 10.4 NNW 28 37 1003.2 - 0.0 - - - - - - -
30/10:30am 10.4 NNW 32 43 1004.0 - 0.0 - - - - - - -
30/10:00am 10.1 NNW 28 38 1004.7 - 0.0 - - - - - - -
30/09:31am 9.9 NNW 30 42 1005.6 - 0.0 - - - - - - -
30/09:30am 9.9 NNW 30 38 1005.5 - 0.0 - - - - - - -
30/09:00am 9.8 NW 25 39 1007.0 F 1.6 Fine Mostly cloudy 15 1 4.0 16 SW
30/08:30am 9.8 NNW 27 40 1007.5 - 1.6 - - - - - - -
30/08:10am 9.7 NNW 25 35 1008.0 - 1.6 - - - - - - -
30/08:08am 9.7 NNW 25 35 1008.1 - 1.6 - - - - - - -
30/08:00am 9.7 NNW 26 35 1007.9 - 1.6 - - - - - - -
30/07:30am 9.7 NNW 24 35 1008.8 - 1.6 - - - - - - -
30/07:00am 9.6 NNW 23 34 1009.0 - 1.6 - - - - - - -
30/06:34am 9.5 NNW 24 35 1009.3 - 1.6 - - - - - - -
30/06:30am 9.6 NNW 24 32 1009.8 - 1.6 - - - - - - -
30/06:00am 9.5 NW 22 36 1010.1 F 1.6 Fine Cloudy 12 1 3.5 14 SW
30/05:30am 9.7 NNW 27 38 1010.4 - 1.6 - - - - - - -
30/05:01am 9.7 NNW 25 35 1010.9 - 1.6 - - - - - - -
30/05:00am 9.7 NNW 26 35 1011.0 - 1.6 - - - - - - -
30/04:37am 9.7 NNW 26 36 1011.4 - 1.6 - - - - - - -
30/04:30am 9.7 NNW 25 34 1011.6 - 1.6 - - - - - - -
30/04:20am 9.9 NNW 25 35 1011.7 - 1.6 - - - - - - -
30/04:00am 9.6 NNW 25 34 1012.3 - 1.6 - - - - - - -
30/03:39am 9.6 NNW 24 34 1012.5 - 1.6 - - - - - - -
30/03:30am 9.5 NNW 24 34 1012.6 - 1.6 - - - - - - -
30/03:02am 9.5 NNW 24 34 1013.0 - 1.6 - - - - - - -
30/03:00am 9.6 NNW 24 30 1013.5 - 1.6 - - - - - - -
30/02:30am 9.4 NNW 23 30 1014.3 - 1.6 - - - - - - -
30/02:00am 9.4 NNW 24 31 1014.4 - 1.6 - - - - - - -
30/01:30am 9.4 NNW 23 29 1014.8 - 1.6 - - - - - - -
30/01:00am 9.4 NNW 23 31 1015.0 - 1.6 - - - - - - -
30/12:30am 9.7 NNW 23 30 1015.6 - 1.6 - - - - - - -
30/12:00am 9.7 NNW 22 30 1016.5 - 1.6 - - - - - - -
 
Date/Time
EST
Temp

°C
Wind Pressure Rain
since 9am
mm
Weather Cloud Vis
km
Sea
Height
m
Swell
Dir
 
Speed
knots
Gust
knots
hPa Trend Height
m
Period
s
Dir
29/11:30pm 9.7 NNW 23 31 1016.5 - 1.6 - - - - - - -
29/11:03pm 9.5 NNW 24 34 1016.7 - 1.6 - - - - - - -
29/11:00pm 9.5 NNW 23 29 1016.9 - 1.6 - - - - - - -
29/10:30pm 9.7 NNW 25 36 1017.0 - 1.4 - - - - - - -
29/10:11pm 9.7 NNW 22 32 1017.4 - 1.4 - - - - - - -
29/10:00pm 9.7 NNW 21 28 1017.5 - 1.4 - - - - - - -
29/09:42pm 9.6 NNW 26 36 1017.4 - 1.4 - - - - - - -
29/09:30pm 9.7 NNW 27 34 1017.5 - 1.2 - - - - - - -
29/09:13pm 9.2 NNW 27 38 1017.9 - 1.2 - - - - - - -
29/09:00pm 9.2 NNW 38 49 1017.3 - 1.2 - - - - - - -
29/08:57pm 9.2 NNW 37 49 1017.1 - 1.2 - - - - - - -
29/08:52pm 9.5 NNW 37 43 1017.2 - 1.0 - - - - - - -
29/08:50pm 9.5 NNW 25 40 1017.9 - 0.8 - - - - - - -
29/08:48pm 9.2 NNW 24 32 1018.4 - 0.8 - - - - - - -
29/08:30pm 9.1 NNW 15 21 1018.6 - 0.2 - - - - - - -
29/08:00pm 9.3 NNW 19 27 1018.6 - 0.0 - - - - - - -
29/07:30pm 9.2 NNW 19 25 1019.0 - 0.0 - - - - - - -
29/07:00pm 9.3 NNW 20 26 1019.1 - 0.0 - - - - - - -
29/06:30pm 9.9 NNW 21 28 1018.9 - 0.0 - - - - - - -
29/06:00pm 10.0 NNW 23 30 1019.3 - 0.0 - - - - - - -
29/05:30pm 10.0 NNW 24 31 1019.3 - 0.0 - - - - - - -
29/05:00pm 9.7 NNW 24 31 1019.4 - 0.0 - - - - - - -
29/04:35pm 9.5 NNW 25 35 1019.6 - 0.0 - - - - - - -
29/04:30pm 9.7 NNW 26 35 1019.5 - 0.0 - - - - - - -
29/04:18pm 10.0 NNW 22 32 1019.7 - 0.0 - - - - - - -
29/04:00pm 9.7 NNW 24 31 1019.9 - 0.0 - - - - - - -
29/03:30pm 9.9 NNW 23 30 1020.4 - 0.0 - - - - - - -
29/03:00pm 9.9 WNW 20 29 1020.9 F 0.0 Drizzle Cloudy 10 1 4.5 14 SW
29/02:30pm 10.1 NNW 22 27 1020.7 - 0.0 - - - - - - -
29/02:00pm 9.5 NNW 21 28 1021.3 - 0.0 - - - - - - -
29/01:30pm 9.6 NNW 19 23 1021.8 - 0.0 - - - - - - -
29/01:05pm 9.2 NNW 21 31 1022.1 - 0.0 - - - - - - -
29/01:00pm 9.3 NNW 22 31 1022.0 - 0.0 - - - - - - -
29/12:30pm 8.9 NNW 18 23 1022.8 - 0.0 - - - - - - -
29/12:00pm 9.2 NNW 21 27 1023.4 - 0.0 - - - - - - -
29/11:30am 8.9 NNW 18 25 1024.0 - 0.0 - - - - - - -
29/11:00am 9.0 NNW 19 27 1024.3 - 0.0 - - - - - - -
29/10:30am 8.7 NNW 19 27 1024.5 - 0.0 - - - - - - -
29/10:00am 8.6 NNW 17 22 1024.8 - 0.0 - - - - - - -
29/09:30am 8.5 NNW 18 23 1025.2 - 0.0 - - - - - - -
29/09:00am 8.2 NNW 20 27 1025.6 F 3.4 Distant precip. Mostly cloudy 10 1 3.5 13 SW
29/08:30am 8.2 NNW 21 25 1025.5 - 3.4 - - - - - - -
29/08:00am 8.2 NNW 20 26 1025.5 - 3.4 - - - - - - -
29/07:30am 8.1 NNW 18 24 1025.5 - 3.4 - - - - - - -
29/07:00am 8.2 NNW 20 25 1025.5 - 3.4 - - - - - - -
29/06:30am 8.3 NNW 18 23 1025.4 - 3.4 - - - - - - -
29/06:00am 8.6 NNW 15 25 1025.6 F 3.2 Rain Cloudy 3 1 3.0 12 SW
29/05:30am 8.3 NNW 19 25 1025.4 - 3.2 - - - - - - -
29/05:00am 8.4 NNW 20 27 1025.5 - 3.0 - - - - - - -
29/04:30am 8.7 NNW 19 25 1025.4 - 2.8 - - - - - - -
29/04:00am 8.8 NNW 15 20 1025.7 - 2.8 - - - - - - -
29/03:30am 9.2 NNW 21 27 1025.6 - 2.8 - - - - - - -
29/03:00am 8.9 NNW 21 27 1026.1 - 2.8 - - - - - - -
29/02:30am 9.2 NNW 23 29 1025.8 - 2.2 - - - - - - -
29/02:00am 9.5 NW 27 32 1025.3 - 2.2 - - - - - - -
29/01:30am 9.7 NW 29 32 1025.6 - 2.2 - - - - - - -
29/01:00am 9.5 NW 30 34 1025.3 - 2.2 - - - - - - -
29/12:30am 9.9 NW 29 34 1025.3 - 2.2 - - - - - - -
29/12:00am 9.8 NW 31 35 1025.7 - 2.2 - - - - - - -
 
Date/Time
EST
Temp

°C
Wind Pressure Rain
since 9am
mm
Weather Cloud Vis
km
Sea
Height
m
Swell
Dir
 
Speed
knots
Gust
knots
hPa Trend Height
m
Period
s
Dir
28/11:30pm 9.6 NW 30 33 1025.8 - 2.2 - - - - - - -
28/11:00pm 9.6 NW 31 35 1025.6 - 2.2 - - - - - - -
28/10:30pm 9.7 NW 31 35 1026.0 - 2.2 - - - - - - -
28/10:00pm 9.4 NW 29 33 1026.3 - 2.0 - - - - - - -
28/09:30pm 9.5 NW 31 37 1026.0 - 1.8 - - - - - - -
28/09:00pm 9.4 NW 32 35 1026.2 - 1.8 - - - - - - -
28/08:30pm 9.6 NW 31 36 1026.0 - 1.8 - - - - - - -
28/08:00pm 9.6 NW 32 36 1025.9 - 1.8 - - - - - - -
28/07:30pm 9.7 NW 31 35 1025.7 - 1.6 - - - - - - -
28/07:00pm 9.7 NW 31 34 1025.8 - 1.6 - - - - - - -
28/06:30pm 9.7 NW 30 34 1025.4 - 1.6 - - - - - - -
28/06:00pm 9.6 NW 31 34 1025.6 - 1.6 - - - - - - -
28/05:30pm 9.5 NW 32 35 1024.9 - 1.6 - - - - - - -
28/05:00pm 9.7 NW 30 34 1025.0 - 1.4 - - - - - - -
28/04:30pm 9.4 NW 33 38 1024.7 - 1.0 - - - - - - -
28/04:00pm 9.8 NW 32 36 1024.5 - 1.0 - - - - - - -
28/03:30pm 9.8 NW 32 35 1024.6 - 1.0 - - - - - - -
28/03:00pm 9.7 W 30 38 1024.3 R 0.6 Showers Mostly cloudy 10 2 3.0 12 SW
28/02:30pm 9.8 NW 32 38 1023.7 - 0.6 - - - - - - -
28/02:00pm 9.8 NW 34 38 1024.0 - 0.4 - - - - - - -
28/01:30pm 9.9 NW 32 35 1023.9 - 0.4 - - - - - - -
28/01:00pm 9.8 NW 31 35 1023.8 - 0.2 - - - - - - -
28/12:30pm 9.8 NW 32 37 1023.8 - 0.2 - - - - - - -
28/12:00pm 9.9 NW 34 39 1024.2 - 0.0 - - - - - - -
28/11:30am 9.9 NW 31 35 1024.4 - 0.0 - - - - - - -
28/11:00am 9.8 NW 31 35 1024.4 - 0.0 - - - - - - -
28/10:30am 10.0 NW 33 37 1024.4 - 0.0 - - - - - - -
28/10:00am 9.9 NW 31 35 1024.3 - 0.0 - - - - - - -
28/09:30am 9.8 NW 31 33 1024.3 - 0.0 - - - - - - -
28/09:00am 9.7 W 25 31 1024.3 R 2.2 Fine Mostly cloudy 15 2 3.0 12 SW
28/08:30am 9.6 NW 30 33 1024.1 - 2.2 - - - - - - -
28/08:00am 9.4 NW 30 33 1023.6 - 2.2 - - - - - - -
28/07:30am 9.1 WNW 29 33 1023.3 - 2.2 - - - - - - -
28/07:00am 9.1 WNW 30 35 1023.0 - 2.2 - - - - - - -
28/06:30am 9.2 NW 29 33 1022.4 - 2.2 - - - - - - -

Other Formats:

Comma delimited format used in spreadsheet applications
http://www.bom.gov.au/fwo/IDT60701/IDT60701.94962.axf

JavaScript Object Notation format (JSON) in row-major order
http://www.bom.gov.au/fwo/IDT60701/IDT60701.94962.json